sensor_id;sensor_type;location;lat;lon;timestamp;temperature;humidity
39601;DHT22;25297;44.758;11.310;2022-12-20T00:01:20;10.20;95.60
39601;DHT22;25297;44.758;11.310;2022-12-20T00:03:52;10.30;95.60
39601;DHT22;25297;44.758;11.310;2022-12-20T00:06:17;10.20;95.50
39601;DHT22;25297;44.758;11.310;2022-12-20T00:08:44;10.20;95.50
39601;DHT22;25297;44.758;11.310;2022-12-20T00:11:09;10.20;95.50
39601;DHT22;25297;44.758;11.310;2022-12-20T00:13:36;10.20;95.60
39601;DHT22;25297;44.758;11.310;2022-12-20T00:16:10;10.20;95.60
39601;DHT22;25297;44.758;11.310;2022-12-20T00:18:37;10.20;95.60
39601;DHT22;25297;44.758;11.310;2022-12-20T00:21:05;10.20;95.70
39601;DHT22;25297;44.758;11.310;2022-12-20T00:23:31;10.30;95.70
39601;DHT22;25297;44.758;11.310;2022-12-20T00:28:33;10.30;95.60
39601;DHT22;25297;44.758;11.310;2022-12-20T00:30:59;10.20;95.50
39601;DHT22;25297;44.758;11.310;2022-12-20T00:33:25;10.20;95.50
39601;DHT22;25297;44.758;11.310;2022-12-20T00:35:52;10.20;95.60
39601;DHT22;25297;44.758;11.310;2022-12-20T00:38:18;10.20;95.60
39601;DHT22;25297;44.758;11.310;2022-12-20T00:40:44;10.20;95.70
39601;DHT22;25297;44.758;11.310;2022-12-20T00:43:10;10.20;95.70
39601;DHT22;25297;44.758;11.310;2022-12-20T00:45:35;10.20;95.70
39601;DHT22;25297;44.758;11.310;2022-12-20T00:48:01;10.20;95.70
39601;DHT22;25297;44.758;11.310;2022-12-20T00:50:26;10.20;95.60
39601;DHT22;25297;44.758;11.310;2022-12-20T00:52:52;10.20;95.60
39601;DHT22;25297;44.758;11.310;2022-12-20T00:55:18;10.20;95.70
39601;DHT22;25297;44.758;11.310;2022-12-20T00:57:43;10.20;95.70
39601;DHT22;25297;44.758;11.310;2022-12-20T01:00:09;10.20;95.70
39601;DHT22;25297;44.758;11.310;2022-12-20T01:02:36;10.20;95.70
39601;DHT22;25297;44.758;11.310;2022-12-20T01:05:01;10.20;95.80
39601;DHT22;25297;44.758;11.310;2022-12-20T01:07:27;10.20;95.90
39601;DHT22;25297;44.758;11.310;2022-12-20T01:09:54;10.20;95.90
39601;DHT22;25297;44.758;11.310;2022-12-20T01:12:19;10.20;95.90
39601;DHT22;25297;44.758;11.310;2022-12-20T01:14:45;10.20;95.90
39601;DHT22;25297;44.758;11.310;2022-12-20T01:17:11;10.20;95.90
39601;DHT22;25297;44.758;11.310;2022-12-20T01:19:36;10.20;95.90
39601;DHT22;25297;44.758;11.310;2022-12-20T01:22:02;10.20;95.90
39601;DHT22;25297;44.758;11.310;2022-12-20T01:24:28;10.20;95.90
39601;DHT22;25297;44.758;11.310;2022-12-20T01:26:54;10.20;95.90
39601;DHT22;25297;44.758;11.310;2022-12-20T01:29:20;10.20;95.90
39601;DHT22;25297;44.758;11.310;2022-12-20T01:31:45;10.10;95.90
39601;DHT22;25297;44.758;11.310;2022-12-20T01:34:11;10.20;95.90
39601;DHT22;25297;44.758;11.310;2022-12-20T01:36:37;10.20;96.00
39601;DHT22;25297;44.758;11.310;2022-12-20T01:39:09;10.20;96.00
39601;DHT22;25297;44.758;11.310;2022-12-20T01:41:36;10.20;96.00
39601;DHT22;25297;44.758;11.310;2022-12-20T01:44:05;10.20;96.00
39601;DHT22;25297;44.758;11.310;2022-12-20T01:46:33;10.20;96.00
39601;DHT22;25297;44.758;11.310;2022-12-20T01:51:44;10.20;96.00
39601;DHT22;25297;44.758;11.310;2022-12-20T01:54:35;10.20;96.10
39601;DHT22;25297;44.758;11.310;2022-12-20T01:57:06;10.20;96.10
39601;DHT22;25297;44.758;11.310;2022-12-20T01:59:35;10.20;96.10
39601;DHT22;25297;44.758;11.310;2022-12-20T02:02:04;10.20;96.00
39601;DHT22;25297;44.758;11.310;2022-12-20T02:04:32;10.30;96.10
39601;DHT22;25297;44.758;11.310;2022-12-20T02:06:58;10.20;95.90
39601;DHT22;25297;44.758;11.310;2022-12-20T02:09:25;10.20;95.90
39601;DHT22;25297;44.758;11.310;2022-12-20T02:14:43;10.20;96.00
39601;DHT22;25297;44.758;11.310;2022-12-20T02:20:41;10.10;96.00
39601;DHT22;25297;44.758;11.310;2022-12-20T02:25:52;10.10;96.20
39601;DHT22;25297;44.758;11.310;2022-12-20T02:31:10;10.10;96.10
39601;DHT22;25297;44.758;11.310;2022-12-20T02:33:36;10.10;96.30
39601;DHT22;25297;44.758;11.310;2022-12-20T02:36:03;10.10;96.30
39601;DHT22;25297;44.758;11.310;2022-12-20T02:38:34;10.10;96.30
39601;DHT22;25297;44.758;11.310;2022-12-20T02:41:08;10.10;96.30
39601;DHT22;25297;44.758;11.310;2022-12-20T02:43:37;10.10;96.30
39601;DHT22;25297;44.758;11.310;2022-12-20T02:46:22;10.10;96.30
39601;DHT22;25297;44.758;11.310;2022-12-20T02:48:50;10.10;96.40
39601;DHT22;25297;44.758;11.310;2022-12-20T02:51:17;10.10;96.30
39601;DHT22;25297;44.758;11.310;2022-12-20T02:53:45;10.10;96.20
39601;DHT22;25297;44.758;11.310;2022-12-20T02:59:17;10.10;96.10
39601;DHT22;25297;44.758;11.310;2022-12-20T03:01:49;10.10;96.10
39601;DHT22;25297;44.758;11.310;2022-12-20T03:04:16;10.10;96.10
39601;DHT22;25297;44.758;11.310;2022-12-20T03:07:03;10.10;96.00
39601;DHT22;25297;44.758;11.310;2022-12-20T03:09:32;10.10;96.00
39601;DHT22;25297;44.758;11.310;2022-12-20T03:11:58;10.00;96.00
39601;DHT22;25297;44.758;11.310;2022-12-20T03:14:24;10.00;96.00
39601;DHT22;25297;44.758;11.310;2022-12-20T03:16:51;10.00;96.10
39601;DHT22;25297;44.758;11.310;2022-12-20T03:19:17;10.00;96.10
39601;DHT22;25297;44.758;11.310;2022-12-20T03:21:42;10.00;96.10
39601;DHT22;25297;44.758;11.310;2022-12-20T03:24:08;10.00;96.10
39601;DHT22;25297;44.758;11.310;2022-12-20T03:26:36;10.10;96.20
39601;DHT22;25297;44.758;11.310;2022-12-20T03:29:03;10.00;96.20
39601;DHT22;25297;44.758;11.310;2022-12-20T03:31:29;10.10;96.20
39601;DHT22;25297;44.758;11.310;2022-12-20T03:33:55;10.10;96.30
39601;DHT22;25297;44.758;11.310;2022-12-20T03:36:20;10.00;96.40
39601;DHT22;25297;44.758;11.310;2022-12-20T03:38:49;10.10;96.30
39601;DHT22;25297;44.758;11.310;2022-12-20T03:41:15;10.10;96.20
39601;DHT22;25297;44.758;11.310;2022-12-20T03:43:40;10.10;96.20
39601;DHT22;25297;44.758;11.310;2022-12-20T03:46:06;10.10;96.30
39601;DHT22;25297;44.758;11.310;2022-12-20T03:48:32;10.10;96.20
39601;DHT22;25297;44.758;11.310;2022-12-20T03:50:58;10.10;96.20
39601;DHT22;25297;44.758;11.310;2022-12-20T03:53:23;10.10;96.20
39601;DHT22;25297;44.758;11.310;2022-12-20T03:55:49;10.10;96.50
39601;DHT22;25297;44.758;11.310;2022-12-20T03:58:15;10.10;96.20
39601;DHT22;25297;44.758;11.310;2022-12-20T04:00:40;10.20;96.20
39601;DHT22;25297;44.758;11.310;2022-12-20T04:03:06;10.20;96.30
39601;DHT22;25297;44.758;11.310;2022-12-20T04:05:31;10.20;96.20
39601;DHT22;25297;44.758;11.310;2022-12-20T04:07:57;10.20;96.30
39601;DHT22;25297;44.758;11.310;2022-12-20T04:10:23;10.20;96.30
39601;DHT22;25297;44.758;11.310;2022-12-20T04:12:48;10.20;96.30
39601;DHT22;25297;44.758;11.310;2022-12-20T04:15:14;10.20;96.30
39601;DHT22;25297;44.758;11.310;2022-12-20T04:17:40;10.20;96.30
39601;DHT22;25297;44.758;11.310;2022-12-20T04:20:06;10.30;96.40
39601;DHT22;25297;44.758;11.310;2022-12-20T04:22:47;10.30;96.40
39601;DHT22;25297;44.758;11.310;2022-12-20T04:25:14;10.30;96.30
39601;DHT22;25297;44.758;11.310;2022-12-20T04:27:40;10.30;96.20
39601;DHT22;25297;44.758;11.310;2022-12-20T04:30:07;10.30;96.20
39601;DHT22;25297;44.758;11.310;2022-12-20T04:32:33;10.30;96.00
39601;DHT22;25297;44.758;11.310;2022-12-20T04:34:58;10.30;96.00
39601;DHT22;25297;44.758;11.310;2022-12-20T04:37:24;10.30;96.00
39601;DHT22;25297;44.758;11.310;2022-12-20T04:39:49;10.30;96.10
39601;DHT22;25297;44.758;11.310;2022-12-20T04:42:15;10.30;95.90
39601;DHT22;25297;44.758;11.310;2022-12-20T04:44:41;10.30;96.00
39601;DHT22;25297;44.758;11.310;2022-12-20T04:47:06;10.20;95.90
39601;DHT22;25297;44.758;11.310;2022-12-20T04:49:32;10.20;95.80
39601;DHT22;25297;44.758;11.310;2022-12-20T04:51:58;10.20;95.90
39601;DHT22;25297;44.758;11.310;2022-12-20T04:54:43;10.20;96.00
39601;DHT22;25297;44.758;11.310;2022-12-20T04:57:09;10.20;96.00
39601;DHT22;25297;44.758;11.310;2022-12-20T04:59:35;10.20;96.00
39601;DHT22;25297;44.758;11.310;2022-12-20T05:02:00;10.20;95.80
39601;DHT22;25297;44.758;11.310;2022-12-20T05:04:26;10.20;95.90
39601;DHT22;25297;44.758;11.310;2022-12-20T05:06:52;10.20;95.90
39601;DHT22;25297;44.758;11.310;2022-12-20T05:09:17;10.20;95.90
39601;DHT22;25297;44.758;11.310;2022-12-20T05:11:43;10.20;96.00
39601;DHT22;25297;44.758;11.310;2022-12-20T05:14:08;10.10;95.90
39601;DHT22;25297;44.758;11.310;2022-12-20T05:16:34;10.10;95.90
39601;DHT22;25297;44.758;11.310;2022-12-20T05:19:02;10.10;95.90
39601;DHT22;25297;44.758;11.310;2022-12-20T05:21:29;10.10;96.00
39601;DHT22;25297;44.758;11.310;2022-12-20T05:24:13;10.10;96.10
39601;DHT22;25297;44.758;11.310;2022-12-20T05:26:58;10.10;96.20
39601;DHT22;25297;44.758;11.310;2022-12-20T05:29:23;10.20;96.30
39601;DHT22;25297;44.758;11.310;2022-12-20T05:31:49;10.20;96.30
39601;DHT22;25297;44.758;11.310;2022-12-20T05:34:15;10.20;96.20
39601;DHT22;25297;44.758;11.310;2022-12-20T05:36:41;10.30;96.20
39601;DHT22;25297;44.758;11.310;2022-12-20T05:39:06;10.30;96.10
39601;DHT22;25297;44.758;11.310;2022-12-20T05:41:32;10.30;95.90
39601;DHT22;25297;44.758;11.310;2022-12-20T05:43:58;10.30;95.90
39601;DHT22;25297;44.758;11.310;2022-12-20T05:46:23;10.30;95.80
39601;DHT22;25297;44.758;11.310;2022-12-20T05:48:49;10.30;95.80
39601;DHT22;25297;44.758;11.310;2022-12-20T05:51:15;10.30;95.70
39601;DHT22;25297;44.758;11.310;2022-12-20T05:53:40;10.30;95.80
39601;DHT22;25297;44.758;11.310;2022-12-20T05:56:06;10.20;95.90
39601;DHT22;25297;44.758;11.310;2022-12-20T05:58:32;10.20;95.90
39601;DHT22;25297;44.758;11.310;2022-12-20T06:01:05;10.30;95.90
39601;DHT22;25297;44.758;11.310;2022-12-20T06:03:31;10.30;95.90
39601;DHT22;25297;44.758;11.310;2022-12-20T06:05:57;10.30;95.90
39601;DHT22;25297;44.758;11.310;2022-12-20T06:08:23;10.30;95.90
39601;DHT22;25297;44.758;11.310;2022-12-20T06:10:49;10.30;95.90
39601;DHT22;25297;44.758;11.310;2022-12-20T06:13:15;10.30;95.90
39601;DHT22;25297;44.758;11.310;2022-12-20T06:15:41;10.30;95.90
39601;DHT22;25297;44.758;11.310;2022-12-20T06:18:07;10.30;96.00
39601;DHT22;25297;44.758;11.310;2022-12-20T06:20:34;10.40;95.90
39601;DHT22;25297;44.758;11.310;2022-12-20T06:23:00;10.30;95.90
39601;DHT22;25297;44.758;11.310;2022-12-20T06:25:26;10.30;95.90
39601;DHT22;25297;44.758;11.310;2022-12-20T06:27:52;10.30;95.70
39601;DHT22;25297;44.758;11.310;2022-12-20T06:30:18;10.30;95.70
39601;DHT22;25297;44.758;11.310;2022-12-20T06:32:44;10.30;95.80
39601;DHT22;25297;44.758;11.310;2022-12-20T06:35:10;10.20;95.80
39601;DHT22;25297;44.758;11.310;2022-12-20T06:37:36;10.20;95.80
39601;DHT22;25297;44.758;11.310;2022-12-20T06:40:02;10.20;95.90
39601;DHT22;25297;44.758;11.310;2022-12-20T06:42:29;10.20;95.80
39601;DHT22;25297;44.758;11.310;2022-12-20T06:44:55;10.20;95.80
39601;DHT22;25297;44.758;11.310;2022-12-20T06:47:21;10.20;95.80
39601;DHT22;25297;44.758;11.310;2022-12-20T06:49:46;10.20;95.80
39601;DHT22;25297;44.758;11.310;2022-12-20T06:52:12;10.20;95.90
39601;DHT22;25297;44.758;11.310;2022-12-20T06:54:37;10.20;95.90
39601;DHT22;25297;44.758;11.310;2022-12-20T06:57:03;10.20;95.90
39601;DHT22;25297;44.758;11.310;2022-12-20T06:59:29;10.20;95.90
39601;DHT22;25297;44.758;11.310;2022-12-20T07:01:54;10.20;96.00
39601;DHT22;25297;44.758;11.310;2022-12-20T07:04:20;10.30;96.10
39601;DHT22;25297;44.758;11.310;2022-12-20T07:06:46;10.30;96.10
39601;DHT22;25297;44.758;11.310;2022-12-20T07:09:11;10.30;95.90
39601;DHT22;25297;44.758;11.310;2022-12-20T07:11:37;10.20;95.90
39601;DHT22;25297;44.758;11.310;2022-12-20T07:14:03;10.20;96.00
39601;DHT22;25297;44.758;11.310;2022-12-20T07:16:28;10.30;96.00
39601;DHT22;25297;44.758;11.310;2022-12-20T07:18:56;10.30;96.00
39601;DHT22;25297;44.758;11.310;2022-12-20T07:21:22;10.30;96.00
39601;DHT22;25297;44.758;11.310;2022-12-20T07:23:47;10.30;96.10
39601;DHT22;25297;44.758;11.310;2022-12-20T07:26:14;10.30;96.00
39601;DHT22;25297;44.758;11.310;2022-12-20T07:28:40;10.30;95.90
39601;DHT22;25297;44.758;11.310;2022-12-20T07:31:06;10.30;96.00
39601;DHT22;25297;44.758;11.310;2022-12-20T07:33:32;10.30;96.10
39601;DHT22;25297;44.758;11.310;2022-12-20T07:36:05;10.30;96.10
39601;DHT22;25297;44.758;11.310;2022-12-20T07:38:32;10.40;96.10
39601;DHT22;25297;44.758;11.310;2022-12-20T07:40:58;10.40;96.00
39601;DHT22;25297;44.758;11.310;2022-12-20T07:43:23;10.40;95.90
39601;DHT22;25297;44.758;11.310;2022-12-20T07:45:56;10.40;95.80
39601;DHT22;25297;44.758;11.310;2022-12-20T07:48:22;10.40;95.80
39601;DHT22;25297;44.758;11.310;2022-12-20T07:50:53;10.40;95.80
39601;DHT22;25297;44.758;11.310;2022-12-20T07:53:22;10.40;95.80
39601;DHT22;25297;44.758;11.310;2022-12-20T07:55:49;10.40;95.80
39601;DHT22;25297;44.758;11.310;2022-12-20T07:58:17;10.40;95.90
39601;DHT22;25297;44.758;11.310;2022-12-20T08:00:43;10.40;95.90
39601;DHT22;25297;44.758;11.310;2022-12-20T08:03:14;10.40;95.90
39601;DHT22;25297;44.758;11.310;2022-12-20T08:05:43;10.40;96.00
39601;DHT22;25297;44.758;11.310;2022-12-20T08:08:10;10.40;95.90
39601;DHT22;25297;44.758;11.310;2022-12-20T08:10:36;10.40;96.00
39601;DHT22;25297;44.758;11.310;2022-12-20T08:13:04;10.40;96.10
39601;DHT22;25297;44.758;11.310;2022-12-20T08:15:30;10.40;96.00
39601;DHT22;25297;44.758;11.310;2022-12-20T08:17:56;10.40;96.00
39601;DHT22;25297;44.758;11.310;2022-12-20T08:20:22;10.40;96.10
39601;DHT22;25297;44.758;11.310;2022-12-20T08:22:48;10.50;96.20
39601;DHT22;25297;44.758;11.310;2022-12-20T08:25:13;10.40;96.00
39601;DHT22;25297;44.758;11.310;2022-12-20T08:27:39;10.50;96.00
39601;DHT22;25297;44.758;11.310;2022-12-20T08:30:05;10.50;96.00
39601;DHT22;25297;44.758;11.310;2022-12-20T08:32:32;10.50;96.00
39601;DHT22;25297;44.758;11.310;2022-12-20T08:34:58;10.50;95.90
39601;DHT22;25297;44.758;11.310;2022-12-20T08:37:24;10.50;96.00
39601;DHT22;25297;44.758;11.310;2022-12-20T08:39:49;10.50;96.00
39601;DHT22;25297;44.758;11.310;2022-12-20T08:42:15;10.50;96.00
39601;DHT22;25297;44.758;11.310;2022-12-20T08:44:40;10.60;96.00
39601;DHT22;25297;44.758;11.310;2022-12-20T08:47:06;10.50;96.00
39601;DHT22;25297;44.758;11.310;2022-12-20T08:49:32;10.50;95.90
39601;DHT22;25297;44.758;11.310;2022-12-20T08:51:57;10.60;96.00
39601;DHT22;25297;44.758;11.310;2022-12-20T08:54:23;10.60;96.00
39601;DHT22;25297;44.758;11.310;2022-12-20T08:56:49;10.60;96.00
39601;DHT22;25297;44.758;11.310;2022-12-20T08:59:14;10.60;96.00
39601;DHT22;25297;44.758;11.310;2022-12-20T09:01:40;10.60;95.90
39601;DHT22;25297;44.758;11.310;2022-12-20T09:04:05;10.60;96.00
39601;DHT22;25297;44.758;11.310;2022-12-20T09:06:33;10.60;96.00
39601;DHT22;25297;44.758;11.310;2022-12-20T09:08:59;10.60;96.00
39601;DHT22;25297;44.758;11.310;2022-12-20T09:11:25;10.60;96.00
39601;DHT22;25297;44.758;11.310;2022-12-20T09:13:54;10.70;96.00
39601;DHT22;25297;44.758;11.310;2022-12-20T09:16:23;10.70;96.00
39601;DHT22;25297;44.758;11.310;2022-12-20T09:18:49;10.70;96.00
39601;DHT22;25297;44.758;11.310;2022-12-20T09:21:15;10.70;96.00
39601;DHT22;25297;44.758;11.310;2022-12-20T09:23:41;10.70;96.00
39601;DHT22;25297;44.758;11.310;2022-12-20T09:26:10;10.70;96.00
39601;DHT22;25297;44.758;11.310;2022-12-20T09:28:36;10.70;96.10
39601;DHT22;25297;44.758;11.310;2022-12-20T09:31:04;10.70;96.00
39601;DHT22;25297;44.758;11.310;2022-12-20T09:33:31;10.70;96.00
39601;DHT22;25297;44.758;11.310;2022-12-20T09:35:58;10.70;96.10
39601;DHT22;25297;44.758;11.310;2022-12-20T09:38:24;10.70;96.10
39601;DHT22;25297;44.758;11.310;2022-12-20T09:40:53;10.70;96.10
39601;DHT22;25297;44.758;11.310;2022-12-20T09:43:20;10.80;96.20
39601;DHT22;25297;44.758;11.310;2022-12-20T09:45:49;10.80;96.10
39601;DHT22;25297;44.758;11.310;2022-12-20T09:48:23;10.80;96.10
39601;DHT22;25297;44.758;11.310;2022-12-20T09:56:35;10.80;96.10
39601;DHT22;25297;44.758;11.310;2022-12-20T09:59:13;10.90;96.10
39601;DHT22;25297;44.758;11.310;2022-12-20T10:01:43;10.90;96.00
39601;DHT22;25297;44.758;11.310;2022-12-20T10:04:22;10.90;96.10
39601;DHT22;25297;44.758;11.310;2022-12-20T10:25:31;11.00;95.90
39601;DHT22;25297;44.758;11.310;2022-12-20T10:28:00;11.00;95.70
39601;DHT22;25297;44.758;11.310;2022-12-20T10:30:31;11.00;95.60
39601;DHT22;25297;44.758;11.310;2022-12-20T10:32:57;11.00;95.60
39601;DHT22;25297;44.758;11.310;2022-12-20T10:35:29;11.10;95.50
39601;DHT22;25297;44.758;11.310;2022-12-20T10:38:09;11.10;95.30
39601;DHT22;25297;44.758;11.310;2022-12-20T10:40:40;11.10;95.40
39601;DHT22;25297;44.758;11.310;2022-12-20T10:43:17;11.10;95.40
39601;DHT22;25297;44.758;11.310;2022-12-20T10:45:53;11.10;95.40
39601;DHT22;25297;44.758;11.310;2022-12-20T10:48:32;11.10;95.40
39601;DHT22;25297;44.758;11.310;2022-12-20T10:53:36;11.20;95.40
39601;DHT22;25297;44.758;11.310;2022-12-20T10:58:56;11.20;95.30
39601;DHT22;25297;44.758;11.310;2022-12-20T11:01:26;11.30;95.30
39601;DHT22;25297;44.758;11.310;2022-12-20T11:04:01;11.30;95.30
39601;DHT22;25297;44.758;11.310;2022-12-20T11:06:41;11.30;95.00
39601;DHT22;25297;44.758;11.310;2022-12-20T11:12:13;11.30;94.90
39601;DHT22;25297;44.758;11.310;2022-12-20T11:14:41;11.40;94.80
39601;DHT22;25297;44.758;11.310;2022-12-20T11:30:33;11.40;94.60
39601;DHT22;25297;44.758;11.310;2022-12-20T11:33:28;11.50;94.50
39601;DHT22;25297;44.758;11.310;2022-12-20T11:36:07;11.50;94.30
39601;DHT22;25297;44.758;11.310;2022-12-20T11:39:00;11.50;94.10
39601;DHT22;25297;44.758;11.310;2022-12-20T11:41:37;11.50;94.30
39601;DHT22;25297;44.758;11.310;2022-12-20T11:44:15;11.50;94.20
39601;DHT22;25297;44.758;11.310;2022-12-20T11:52:04;11.50;94.10
39601;DHT22;25297;44.758;11.310;2022-12-20T11:54:44;11.60;93.90
39601;DHT22;25297;44.758;11.310;2022-12-20T11:57:22;11.50;94.00
39601;DHT22;25297;44.758;11.310;2022-12-20T11:59:56;11.50;93.90
39601;DHT22;25297;44.758;11.310;2022-12-20T12:02:53;11.60;93.90
39601;DHT22;25297;44.758;11.310;2022-12-20T12:05:32;11.50;93.90
39601;DHT22;25297;44.758;11.310;2022-12-20T12:08:04;11.60;93.80
39601;DHT22;25297;44.758;11.310;2022-12-20T12:10:36;11.60;93.80
39601;DHT22;25297;44.758;11.310;2022-12-20T12:13:22;11.60;93.80
39601;DHT22;25297;44.758;11.310;2022-12-20T12:15:52;11.60;93.80
39601;DHT22;25297;44.758;11.310;2022-12-20T12:18:21;11.60;93.80
39601;DHT22;25297;44.758;11.310;2022-12-20T12:20:54;11.60;94.00
39601;DHT22;25297;44.758;11.310;2022-12-20T12:25:52;11.70;93.70
39601;DHT22;25297;44.758;11.310;2022-12-20T12:28:20;11.70;93.70
39601;DHT22;25297;44.758;11.310;2022-12-20T12:30:58;11.70;93.70
39601;DHT22;25297;44.758;11.310;2022-12-20T12:33:33;11.70;93.70
39601;DHT22;25297;44.758;11.310;2022-12-20T12:47:09;11.80;93.10
39601;DHT22;25297;44.758;11.310;2022-12-20T12:49:37;11.80;93.20
39601;DHT22;25297;44.758;11.310;2022-12-20T12:52:04;11.80;93.20
39601;DHT22;25297;44.758;11.310;2022-12-20T12:54:37;11.80;93.20
39601;DHT22;25297;44.758;11.310;2022-12-20T12:57:13;11.80;93.20
39601;DHT22;25297;44.758;11.310;2022-12-20T12:59:45;11.80;93.10
39601;DHT22;25297;44.758;11.310;2022-12-20T13:17:59;11.80;93.30
39601;DHT22;25297;44.758;11.310;2022-12-20T13:20:33;11.80;93.30
39601;DHT22;25297;44.758;11.310;2022-12-20T13:25:44;11.80;93.30
39601;DHT22;25297;44.758;11.310;2022-12-20T13:31:28;11.90;93.20
39601;DHT22;25297;44.758;11.310;2022-12-20T13:33:53;11.90;93.20
39601;DHT22;25297;44.758;11.310;2022-12-20T13:39:00;11.90;93.20
39601;DHT22;25297;44.758;11.310;2022-12-20T13:49:40;11.90;93.00
39601;DHT22;25297;44.758;11.310;2022-12-20T13:54:40;11.90;93.00
39601;DHT22;25297;44.758;11.310;2022-12-20T13:57:06;11.90;93.20
39601;DHT22;25297;44.758;11.310;2022-12-20T13:59:33;11.90;93.20
39601;DHT22;25297;44.758;11.310;2022-12-20T14:02:01;12.00;93.30
39601;DHT22;25297;44.758;11.310;2022-12-20T14:04:43;12.00;93.30
39601;DHT22;25297;44.758;11.310;2022-12-20T14:07:13;12.00;93.30
39601;DHT22;25297;44.758;11.310;2022-12-20T14:09:44;12.00;93.30
39601;DHT22;25297;44.758;11.310;2022-12-20T14:12:15;12.00;93.10
39601;DHT22;25297;44.758;11.310;2022-12-20T14:14:48;12.00;93.10
39601;DHT22;25297;44.758;11.310;2022-12-20T14:17:30;12.00;93.20
39601;DHT22;25297;44.758;11.310;2022-12-20T14:22:32;12.00;93.10
39601;DHT22;25297;44.758;11.310;2022-12-20T14:24:59;12.00;93.00
39601;DHT22;25297;44.758;11.310;2022-12-20T14:27:28;12.00;93.00
39601;DHT22;25297;44.758;11.310;2022-12-20T14:29:57;12.00;93.00
39601;DHT22;25297;44.758;11.310;2022-12-20T14:32:24;12.00;92.90
39601;DHT22;25297;44.758;11.310;2022-12-20T14:34:50;11.90;93.00
39601;DHT22;25297;44.758;11.310;2022-12-20T14:37:35;12.00;93.10
39601;DHT22;25297;44.758;11.310;2022-12-20T14:42:38;12.00;93.20
39601;DHT22;25297;44.758;11.310;2022-12-20T14:47:58;11.90;93.10
39601;DHT22;25297;44.758;11.310;2022-12-20T14:50:36;12.00;93.10
39601;DHT22;25297;44.758;11.310;2022-12-20T14:53:03;12.00;93.00
39601;DHT22;25297;44.758;11.310;2022-12-20T14:55:44;12.00;93.00
39601;DHT22;25297;44.758;11.310;2022-12-20T14:58:27;12.00;93.00
39601;DHT22;25297;44.758;11.310;2022-12-20T15:01:00;12.00;92.90
39601;DHT22;25297;44.758;11.310;2022-12-20T15:03:27;12.00;93.00
39601;DHT22;25297;44.758;11.310;2022-12-20T15:05:57;12.00;93.10
39601;DHT22;25297;44.758;11.310;2022-12-20T15:08:32;12.00;92.80
39601;DHT22;25297;44.758;11.310;2022-12-20T15:13:34;12.00;92.70
39601;DHT22;25297;44.758;11.310;2022-12-20T15:16:24;11.90;92.80
39601;DHT22;25297;44.758;11.310;2022-12-20T15:18:53;11.90;92.80
39601;DHT22;25297;44.758;11.310;2022-12-20T15:23:52;11.90;92.70
39601;DHT22;25297;44.758;11.310;2022-12-20T15:26:20;11.90;92.70
39601;DHT22;25297;44.758;11.310;2022-12-20T15:28:46;11.90;92.80
39601;DHT22;25297;44.758;11.310;2022-12-20T15:31:13;11.90;92.80
39601;DHT22;25297;44.758;11.310;2022-12-20T15:33:41;11.90;92.70
39601;DHT22;25297;44.758;11.310;2022-12-20T15:36:15;11.90;92.80
39601;DHT22;25297;44.758;11.310;2022-12-20T15:38:41;11.90;92.80
39601;DHT22;25297;44.758;11.310;2022-12-20T15:41:12;11.90;92.90
39601;DHT22;25297;44.758;11.310;2022-12-20T15:43:38;11.80;92.90
39601;DHT22;25297;44.758;11.310;2022-12-20T15:46:04;11.80;93.10
39601;DHT22;25297;44.758;11.310;2022-12-20T15:48:30;11.80;93.20
39601;DHT22;25297;44.758;11.310;2022-12-20T15:50:57;11.80;93.20
39601;DHT22;25297;44.758;11.310;2022-12-20T15:53:32;11.80;93.10
39601;DHT22;25297;44.758;11.310;2022-12-20T15:55:58;11.80;93.10
39601;DHT22;25297;44.758;11.310;2022-12-20T15:58:25;11.80;93.10
39601;DHT22;25297;44.758;11.310;2022-12-20T16:00:58;11.80;93.10
39601;DHT22;25297;44.758;11.310;2022-12-20T16:03:29;11.80;93.10
39601;DHT22;25297;44.758;11.310;2022-12-20T16:05:55;11.80;93.20
39601;DHT22;25297;44.758;11.310;2022-12-20T16:08:21;11.80;93.30
39601;DHT22;25297;44.758;11.310;2022-12-20T16:10:49;11.70;93.40
39601;DHT22;25297;44.758;11.310;2022-12-20T16:13:21;11.70;93.40
39601;DHT22;25297;44.758;11.310;2022-12-20T16:15:46;11.80;93.30
39601;DHT22;25297;44.758;11.310;2022-12-20T16:18:12;11.80;93.20
39601;DHT22;25297;44.758;11.310;2022-12-20T16:20:38;11.70;93.20
39601;DHT22;25297;44.758;11.310;2022-12-20T16:23:07;11.70;93.10
39601;DHT22;25297;44.758;11.310;2022-12-20T16:25:38;11.70;93.10
39601;DHT22;25297;44.758;11.310;2022-12-20T16:28:03;11.70;93.20
39601;DHT22;25297;44.758;11.310;2022-12-20T16:30:29;11.70;93.20
39601;DHT22;25297;44.758;11.310;2022-12-20T16:32:55;11.70;93.30
39601;DHT22;25297;44.758;11.310;2022-12-20T16:35:31;11.70;93.40
39601;DHT22;25297;44.758;11.310;2022-12-20T16:37:58;11.70;93.40
39601;DHT22;25297;44.758;11.310;2022-12-20T16:40:29;11.70;93.30
39601;DHT22;25297;44.758;11.310;2022-12-20T16:42:56;11.70;93.30
39601;DHT22;25297;44.758;11.310;2022-12-20T16:45:28;11.60;93.30
39601;DHT22;25297;44.758;11.310;2022-12-20T16:47:54;11.60;93.30
39601;DHT22;25297;44.758;11.310;2022-12-20T16:50:23;11.60;93.30
39601;DHT22;25297;44.758;11.310;2022-12-20T16:52:50;11.60;93.30
39601;DHT22;25297;44.758;11.310;2022-12-20T16:55:19;11.60;93.50
39601;DHT22;25297;44.758;11.310;2022-12-20T16:57:45;11.60;93.20
39601;DHT22;25297;44.758;11.310;2022-12-20T17:00:23;11.60;93.20
39601;DHT22;25297;44.758;11.310;2022-12-20T17:02:50;11.60;93.30
39601;DHT22;25297;44.758;11.310;2022-12-20T17:05:36;11.60;93.30
39601;DHT22;25297;44.758;11.310;2022-12-20T17:08:03;11.60;93.40
39601;DHT22;25297;44.758;11.310;2022-12-20T17:10:30;11.60;93.30
39601;DHT22;25297;44.758;11.310;2022-12-20T17:12:56;11.60;93.40
39601;DHT22;25297;44.758;11.310;2022-12-20T17:15:29;11.60;93.50
39601;DHT22;25297;44.758;11.310;2022-12-20T17:17:56;11.50;93.50
39601;DHT22;25297;44.758;11.310;2022-12-20T17:20:23;11.50;93.50
39601;DHT22;25297;44.758;11.310;2022-12-20T17:22:54;11.60;93.50
39601;DHT22;25297;44.758;11.310;2022-12-20T17:25:26;11.60;93.50
39601;DHT22;25297;44.758;11.310;2022-12-20T17:27:52;11.60;93.40
39601;DHT22;25297;44.758;11.310;2022-12-20T17:30:18;11.60;93.20
39601;DHT22;25297;44.758;11.310;2022-12-20T17:32:44;11.60;93.10
39601;DHT22;25297;44.758;11.310;2022-12-20T17:35:23;11.50;93.00
39601;DHT22;25297;44.758;11.310;2022-12-20T17:37:49;11.50;92.90